createdAt,value
2023-05-14T00:00:11.819Z,100534.34
2023-05-14T00:01:14.051Z,100537.19
2023-05-14T00:02:16.893Z,100534.48
2023-05-14T00:03:19.317Z,100546.12
2023-05-14T00:04:22.230Z,100541.75
2023-05-14T00:05:25.128Z,100542.57
2023-05-14T00:06:28.666Z,100541.75
2023-05-14T00:08:42.368Z,100539.79
2023-05-14T00:09:44.195Z,100543.91
2023-05-14T00:10:48.004Z,100542.20
2023-05-14T00:11:50.736Z,100538.66
2023-05-14T00:12:54.355Z,100543.05
2023-05-14T00:13:58.375Z,100539.51
2023-05-14T00:15:03.698Z,100542.20
2023-05-14T00:16:06.333Z,100535.96
2023-05-14T00:17:11.727Z,100539.68
2023-05-14T00:18:16.708Z,100544.22
2023-05-14T00:19:20.836Z,100537.98
2023-05-14T00:20:23.792Z,100542.52
2023-05-14T00:21:29.923Z,100550.59
2023-05-14T00:22:32.916Z,100548.17
2023-05-14T00:23:36.760Z,100552.61
2023-05-14T00:25:50.393Z,100543.23
2023-05-14T00:26:54.488Z,100549.14
2023-05-14T00:27:58.618Z,100552.69
2023-05-14T00:29:04.737Z,100553.67
2023-05-14T00:30:09.235Z,100555.20
2023-05-14T00:31:11.630Z,100558.89
2023-05-14T00:32:14.002Z,100556.20
2023-05-14T00:33:17.913Z,100552.82
2023-05-14T00:34:23.770Z,100554.66
2023-05-14T00:35:26.002Z,100556.50
2023-05-14T00:36:32.077Z,100553.81
2023-05-14T00:37:34.406Z,100556.50
2023-05-14T00:39:47.604Z,100550.88
2023-05-14T00:40:54.021Z,100549.45
2023-05-14T00:41:56.192Z,100555.69
2023-05-14T00:42:58.492Z,100546.58
2023-05-14T00:44:01.111Z,100550.13
2023-05-14T00:45:06.151Z,100550.98
2023-05-14T00:47:18.681Z,100540.84
2023-05-14T00:48:23.786Z,100549.14
2023-05-14T00:49:26.424Z,100548.28
2023-05-14T00:50:29.395Z,100540.20
2023-05-14T00:51:38.440Z,100539.22
2023-05-14T00:52:42.428Z,100541.91
2023-05-14T00:53:45.703Z,100533.83
2023-05-14T00:54:49.655Z,100534.64
2023-05-14T00:55:54.620Z,100532.97
2023-05-14T00:57:00.355Z,100537.51
2023-05-14T00:58:05.056Z,100528.75
2023-05-14T00:59:07.462Z,100540.68
2023-05-14T01:00:11.892Z,100542.66
2023-05-14T01:01:14.128Z,100529.50
2023-05-14T01:02:16.523Z,100533.22
2023-05-14T01:03:18.528Z,100534.20
2023-05-14T01:04:20.839Z,100533.36
2023-05-14T01:05:24.765Z,100538.91
2023-05-14T01:06:46.151Z,100539.05
2023-05-14T01:08:07.623Z,100533.83
2023-05-14T01:09:25.418Z,100539.39
2023-05-14T01:10:34.113Z,100537.69
2023-05-14T01:11:46.442Z,100538.53
2023-05-14T01:13:05.908Z,100539.39
2023-05-14T01:15:31.629Z,100539.83
2023-05-14T01:16:36.027Z,100533.66
2023-05-14T01:18:53.095Z,100534.44
2023-05-14T01:19:56.419Z,100533.83
2023-05-14T01:20:59.073Z,100532.98
2023-05-14T01:22:04.526Z,100544.44
2023-05-14T01:24:22.197Z,100538.67
2023-05-14T01:25:25.345Z,100537.07
2023-05-14T01:26:27.977Z,100537.07
2023-05-14T01:27:39.845Z,100540.45
2023-05-14T01:28:42.991Z,100545.83
2023-05-14T01:31:04.660Z,100543.75
2023-05-14T01:32:08.408Z,100542.15
2023-05-14T01:33:16.069Z,100543.69
2023-05-14T01:34:21.146Z,100542.83
2023-05-14T01:36:38.540Z,100539.72
2023-05-14T01:37:41.604Z,100541.98
2023-05-14T01:38:45.554Z,100548.05
2023-05-14T01:39:50.349Z,100540.82
2023-05-14T01:40:54.785Z,100544.37
2023-05-14T01:41:57.735Z,100547.06
2023-05-14T01:43:01.541Z,100542.52
2023-05-14T01:44:03.995Z,100535.30
2023-05-14T01:46:19.766Z,100535.19
2023-05-14T01:47:22.282Z,100530.05
2023-05-14T01:48:24.468Z,100542.66
2023-05-14T01:49:26.593Z,100535.60
2023-05-14T01:50:29.586Z,100538.30
2023-05-14T01:51:32.094Z,100542.83
2023-05-14T01:52:34.741Z,100546.38
2023-05-14T01:53:36.890Z,100545.52
2023-05-14T01:54:39.074Z,100541.98
2023-05-14T01:55:41.336Z,100551.59
2023-05-14T01:56:43.844Z,100550.60
2023-05-14T01:58:56.606Z,100556.43
2023-05-14T01:59:58.726Z,100531.44
2023-05-14T02:01:02.882Z,100533.83
2023-05-14T02:02:05.114Z,100528.09
2023-05-14T02:03:07.221Z,100528.81
2023-05-14T02:04:09.401Z,100528.50
2023-05-14T02:06:28.344Z,100519.71
2023-05-14T02:07:31.135Z,100529.75
2023-05-14T02:08:33.398Z,100522.35
2023-05-14T02:09:35.942Z,100520.34
2023-05-14T02:10:38.598Z,100522.03
2023-05-14T02:11:40.857Z,100523.70
2023-05-14T02:12:43.073Z,100520.88
2023-05-14T02:13:45.703Z,100520.88
2023-05-14T02:14:47.875Z,100521.73
2023-05-14T02:15:50.759Z,100529.64
2023-05-14T02:16:53.408Z,100516.34
2023-05-14T02:17:55.704Z,100515.31
2023-05-14T02:18:58.838Z,100517.16
2023-05-14T02:20:01.416Z,100519.03
2023-05-14T02:21:04.440Z,100519.71
2023-05-14T02:22:08.623Z,100515.31
2023-05-14T02:23:10.848Z,100509.07
2023-05-14T02:24:13.022Z,100519.17
2023-05-14T02:25:15.452Z,100509.42
2023-05-14T02:26:19.484Z,100514.09
2023-05-14T02:27:21.664Z,100518.80
2023-05-14T02:28:24.294Z,100518.13
2023-05-14T02:29:26.957Z,100521.81
2023-05-14T02:30:29.575Z,100526.34
2023-05-14T02:31:31.719Z,100522.13
2023-05-14T02:32:34.153Z,100523.25
2023-05-14T02:33:38.048Z,100531.50
2023-05-14T02:34:40.313Z,100519.20
2023-05-14T02:35:42.516Z,100520.19
2023-05-14T02:37:54.894Z,100514.41
2023-05-14T02:38:58.613Z,100514.63
2023-05-14T02:40:00.894Z,100522.56
2023-05-14T02:41:02.964Z,100518.03
2023-05-14T02:42:08.240Z,100524.10
2023-05-14T02:43:10.570Z,100519.56
2023-05-14T02:44:12.641Z,100522.26
2023-05-14T02:45:14.823Z,100524.81
2023-05-14T02:46:18.032Z,100521.23
2023-05-14T02:48:37.097Z,100521.02
2023-05-14T02:49:39.247Z,100521.23
2023-05-14T02:50:41.743Z,100518.54
2023-05-14T02:51:43.886Z,100524.67
2023-05-14T02:52:46.473Z,100522.66
2023-05-14T02:53:48.727Z,100521.81
2023-05-14T02:54:51.976Z,100521.67
2023-05-14T02:55:54.176Z,100516.28
2023-05-14T02:56:56.651Z,100519.66
2023-05-14T02:57:58.672Z,100524.02
2023-05-14T02:59:00.971Z,100525.72
2023-05-14T03:00:06.630Z,100519.48
2023-05-14T03:01:09.481Z,100529.09
2023-05-14T03:02:13.433Z,100519.03
2023-05-14T03:03:17.958Z,100521.73
2023-05-14T03:04:21.614Z,100524.25
2023-05-14T03:05:24.027Z,100530.48
2023-05-14T03:06:26.400Z,100522.23
2023-05-14T03:07:28.565Z,100524.92
2023-05-14T03:08:30.841Z,100523.94
2023-05-14T03:09:32.913Z,100523.94
2023-05-14T03:10:35.284Z,100525.64
2023-05-14T03:12:46.695Z,100523.50
2023-05-14T03:13:49.219Z,100522.09
2023-05-14T03:14:53.323Z,100517.55
2023-05-14T03:15:56.051Z,100524.61
2023-05-14T03:16:59.098Z,100524.47
2023-05-14T03:18:02.312Z,100528.84
2023-05-14T03:19:05.223Z,100523.45
2023-05-14T03:20:14.096Z,100529.55
2023-05-14T03:21:16.389Z,100527.53
2023-05-14T03:22:18.563Z,100531.08
2023-05-14T03:23:20.865Z,100528.21
2023-05-14T03:25:38.616Z,100521.56
2023-05-14T03:26:40.800Z,100528.89
2023-05-14T03:27:42.948Z,100525.34
2023-05-14T03:29:54.727Z,100522.06
2023-05-14T03:30:58.381Z,100519.64
2023-05-14T03:32:00.966Z,100523.19
2023-05-14T03:33:03.352Z,100522.02
2023-05-14T03:34:05.488Z,100523.72
2023-05-14T03:35:09.331Z,100520.03
2023-05-14T03:36:13.052Z,100521.70
2023-05-14T03:37:15.902Z,100524.40
2023-05-14T03:38:18.140Z,100525.08
2023-05-14T03:39:22.005Z,100520.53
2023-05-14T03:40:25.558Z,100518.69
2023-05-14T03:41:29.126Z,100528.63
2023-05-14T03:42:31.437Z,100520.53
2023-05-14T03:44:43.193Z,100519.27
2023-05-14T03:45:45.391Z,100518.69
2023-05-14T03:46:47.810Z,100527.63
2023-05-14T03:47:50.668Z,100522.06
2023-05-14T03:48:53.785Z,100521.06
2023-05-14T03:49:56.505Z,100521.92
2023-05-14T03:50:58.775Z,100521.92
2023-05-14T03:52:00.780Z,100525.30
2023-05-14T03:53:03.320Z,100525.30
2023-05-14T03:54:06.826Z,100522.59
2023-05-14T03:55:09.892Z,100523.27
2023-05-14T03:56:12.420Z,100519.59
2023-05-14T03:57:14.873Z,100522.28
2023-05-14T03:59:32.571Z,100525.23
2023-05-14T04:01:44.215Z,100519.38
2023-05-14T04:02:46.234Z,100517.00
2023-05-14T04:03:48.785Z,100519.41
2023-05-14T04:04:51.493Z,100513.89
2023-05-14T04:05:56.311Z,100521.55
2023-05-14T04:06:58.840Z,100519.39
2023-05-14T04:08:04.591Z,100523.45
2023-05-14T04:09:06.906Z,100520.95
2023-05-14T04:10:12.969Z,100518.59
2023-05-14T04:11:15.231Z,100515.75
2023-05-14T04:12:17.883Z,100520.34
2023-05-14T04:13:21.225Z,100519.48
2023-05-14T04:14:23.806Z,100522.70
2023-05-14T04:15:26.237Z,100518.30
2023-05-14T04:16:28.650Z,100519.67
2023-05-14T04:17:31.001Z,100523.70
2023-05-14T04:18:33.341Z,100514.42
2023-05-14T04:19:35.809Z,100513.90
2023-05-14T04:20:39.408Z,100522.30
2023-05-14T04:21:41.665Z,100520.97
2023-05-14T04:22:43.736Z,100527.38
2023-05-14T04:23:46.324Z,100527.70
2023-05-14T04:26:03.806Z,100517.09
2023-05-14T04:27:07.492Z,100527.55
2023-05-14T04:28:09.665Z,100518.59
2023-05-14T04:29:11.820Z,100522.30
2023-05-14T04:30:15.789Z,100520.44
2023-05-14T04:31:18.054Z,100519.45
2023-05-14T04:32:20.273Z,100525.70
2023-05-14T04:33:22.349Z,100517.59
2023-05-14T04:34:24.389Z,100520.30
2023-05-14T04:35:26.528Z,100517.59
2023-05-14T04:36:29.167Z,100528.22
2023-05-14T04:37:31.290Z,100529.06
2023-05-14T04:38:33.368Z,100518.41
2023-05-14T04:39:37.874Z,100521.81
2023-05-14T04:40:40.747Z,100525.37
2023-05-14T04:41:42.832Z,100520.78
2023-05-14T04:42:45.090Z,100520.78
2023-05-14T04:43:49.557Z,100521.81
2023-05-14T04:44:51.667Z,100519.11
2023-05-14T04:45:53.976Z,100528.06
2023-05-14T04:48:06.218Z,100522.30
2023-05-14T04:49:08.060Z,100532.62
2023-05-14T04:50:10.633Z,100528.06
2023-05-14T04:51:12.581Z,100525.19
2023-05-14T04:52:15.789Z,100523.33
2023-05-14T04:53:17.980Z,100533.10
2023-05-14T04:55:29.460Z,100524.55
2023-05-14T04:56:32.607Z,100526.55
2023-05-14T04:57:34.749Z,100533.62
2023-05-14T04:58:36.880Z,100529.07
2023-05-14T04:59:40.114Z,100531.59
2023-05-14T05:00:42.546Z,100535.14
2023-05-14T05:02:54.707Z,100534.52
2023-05-14T05:03:56.928Z,100524.19
2023-05-14T05:04:59.379Z,100536.66
2023-05-14T05:06:01.658Z,100527.41
2023-05-14T05:07:04.544Z,100527.26
2023-05-14T05:09:17.560Z,100535.70
2023-05-14T05:10:19.924Z,100527.26
2023-05-14T05:11:21.991Z,100532.47
2023-05-14T05:12:25.067Z,100529.61
2023-05-14T05:13:27.564Z,100526.56
2023-05-14T05:14:29.630Z,100528.91
2023-05-14T05:15:32.748Z,100530.22
2023-05-14T05:17:44.268Z,100530.30
2023-05-14T05:18:46.204Z,100528.26
2023-05-14T05:20:57.632Z,100529.28
2023-05-14T05:21:59.563Z,100528.08
2023-05-14T05:23:01.675Z,100529.22
2023-05-14T05:24:05.068Z,100525.05
2023-05-14T05:25:08.461Z,100524.48
2023-05-14T05:26:11.235Z,100530.78
2023-05-14T05:27:13.303Z,100526.44
2023-05-14T05:28:15.685Z,100516.88
2023-05-14T05:29:17.750Z,100519.97
2023-05-14T05:30:20.285Z,100516.64
2023-05-14T05:31:22.528Z,100520.56
2023-05-14T05:32:25.175Z,100519.27
2023-05-14T05:33:28.470Z,100522.36
2023-05-14T05:34:30.561Z,100516.47
2023-05-14T05:35:32.840Z,100524.00
2023-05-14T05:36:35.811Z,100520.80
2023-05-14T05:37:37.998Z,100513.19
2023-05-14T05:38:40.130Z,100521.87
2023-05-14T05:39:42.371Z,100523.25
2023-05-14T05:40:44.837Z,100524.62
2023-05-14T05:41:46.928Z,100514.50
2023-05-14T05:42:49.919Z,100511.48
2023-05-14T05:45:02.294Z,100516.39
2023-05-14T05:46:04.636Z,100508.61
2023-05-14T05:47:07.119Z,100516.45
2023-05-14T05:48:09.246Z,100517.12
2023-05-14T05:49:11.512Z,100511.69
2023-05-14T05:50:15.057Z,100519.22
2023-05-14T05:51:17.269Z,100513.31
2023-05-14T05:52:19.314Z,100517.48
2023-05-14T05:53:21.479Z,100514.30
2023-05-14T05:55:35.288Z,100523.17
2023-05-14T05:56:37.336Z,100514.91
2023-05-14T05:57:39.345Z,100515.93
2023-05-14T05:58:43.283Z,100522.22
2023-05-14T05:59:46.324Z,100514.05
2023-05-14T06:00:48.973Z,100516.98
2023-05-14T06:01:52.766Z,100525.14
2023-05-14T06:02:56.585Z,100521.75
2023-05-14T06:03:58.851Z,100522.98
2023-05-14T06:05:01.319Z,100518.32
2023-05-14T06:06:03.766Z,100513.69
2023-05-14T06:07:06.074Z,100523.64
2023-05-14T06:08:08.142Z,100525.45
2023-05-14T06:10:20.945Z,100509.70
2023-05-14T06:11:23.026Z,100520.36
2023-05-14T06:12:25.202Z,100520.47
2023-05-14T06:13:27.244Z,100514.56
2023-05-14T06:14:29.573Z,100521.61
2023-05-14T06:15:31.683Z,100520.48
2023-05-14T06:16:34.069Z,100520.22
2023-05-14T06:17:37.396Z,100512.83
2023-05-14T06:19:50.967Z,100517.23
2023-05-14T06:20:52.939Z,100520.53
2023-05-14T06:21:55.119Z,100521.05
2023-05-14T06:22:58.048Z,100515.82
2023-05-14T06:24:00.318Z,100517.69
2023-05-14T06:25:02.869Z,100519.55
2023-05-14T06:26:05.488Z,100512.25
2023-05-14T06:27:07.646Z,100517.69
2023-05-14T06:28:09.758Z,100514.13
2023-05-14T06:29:11.862Z,100512.45
2023-05-14T06:30:15.349Z,100511.61
2023-05-14T06:31:18.284Z,100509.06
2023-05-14T06:32:20.603Z,100515.34
2023-05-14T06:33:23.843Z,100508.42
2023-05-14T06:34:26.202Z,100510.28
2023-05-14T06:35:29.688Z,100508.80
2023-05-14T06:36:32.031Z,100511.50
2023-05-14T06:37:34.076Z,100504.58
2023-05-14T06:38:36.345Z,100510.21
2023-05-14T06:39:39.603Z,100508.89
2023-05-14T06:40:41.730Z,100507.77
2023-05-14T06:41:44.284Z,100515.45
2023-05-14T06:42:48.468Z,100505.98
2023-05-14T06:43:50.620Z,100511.13
2023-05-14T06:44:53.724Z,100512.52
2023-05-14T06:45:55.942Z,100512.07
2023-05-14T06:46:58.518Z,100509.52
2023-05-14T06:48:00.600Z,100509.52
2023-05-14T06:49:06.376Z,100504.95
2023-05-14T06:50:11.280Z,100507.66
2023-05-14T06:51:13.532Z,100503.93
2023-05-14T06:52:16.605Z,100508.31
2023-05-14T06:53:21.858Z,100507.30
2023-05-14T06:54:24.360Z,100512.72
2023-05-14T06:55:26.498Z,100508.95
2023-05-14T06:56:28.839Z,100507.77
2023-05-14T06:57:31.012Z,100509.27
2023-05-14T06:58:34.143Z,100515.63
2023-05-14T06:59:37.352Z,100511.97
2023-05-14T07:00:41.070Z,100519.00
2023-05-14T07:01:43.279Z,100506.18
2023-05-14T07:02:45.359Z,100509.47
2023-05-14T07:03:47.598Z,100506.28
2023-05-14T07:04:50.453Z,100506.81
2023-05-14T07:05:53.712Z,100505.52
2023-05-14T07:06:55.885Z,100513.98
2023-05-14T07:07:58.506Z,100505.33
2023-05-14T07:09:01.364Z,100505.70
2023-05-14T07:10:05.683Z,100504.34
2023-05-14T07:11:07.682Z,100510.97
2023-05-14T07:12:10.906Z,100504.34
2023-05-14T07:13:13.233Z,100499.43
2023-05-14T07:14:15.358Z,100506.39
2023-05-14T07:15:18.342Z,100503.35
2023-05-14T07:16:20.643Z,100507.44
2023-05-14T07:18:25.034Z,100509.64
2023-05-14T07:19:27.269Z,100501.36
2023-05-14T07:20:30.740Z,100498.47
2023-05-14T07:21:32.833Z,100501.66
2023-05-14T07:22:34.934Z,100496.90
2023-05-14T07:23:38.223Z,100509.50
2023-05-14T07:24:40.219Z,100496.77
2023-05-14T07:25:42.287Z,100499.33
2023-05-14T07:26:44.562Z,100497.67
2023-05-14T07:27:46.884Z,100500.66
2023-05-14T07:30:07.009Z,100501.14
2023-05-14T07:31:09.311Z,100500.07
2023-05-14T07:32:14.714Z,100498.23
2023-05-14T07:33:15.910Z,100499.27
2023-05-14T07:34:19.464Z,100498.44
2023-05-14T07:35:23.046Z,100495.97
2023-05-14T07:36:25.574Z,100495.15
2023-05-14T07:37:28.684Z,100487.42
2023-05-14T07:38:32.427Z,100490.14
2023-05-14T07:39:35.584Z,100490.16
2023-05-14T07:40:38.401Z,100493.09
2023-05-14T07:41:41.018Z,100484.28
2023-05-14T07:42:43.145Z,100488.06
2023-05-14T07:43:46.258Z,100486.60
2023-05-14T07:46:08.180Z,100485.56
2023-05-14T07:47:10.247Z,100483.48
2023-05-14T07:48:12.995Z,100486.41
2023-05-14T07:49:15.632Z,100483.88
2023-05-14T07:50:18.950Z,100482.20
2023-05-14T07:51:22.869Z,100483.23
2023-05-14T07:52:26.146Z,100478.20
2023-05-14T07:53:28.341Z,100485.74
2023-05-14T07:54:30.860Z,100486.17
2023-05-14T07:55:33.047Z,100484.47
2023-05-14T07:56:35.266Z,100484.67
2023-05-14T07:57:37.784Z,100474.98
2023-05-14T07:59:50.361Z,100485.27
2023-05-14T08:00:52.507Z,100482.52
2023-05-14T08:01:54.577Z,100483.80
2023-05-14T08:02:56.778Z,100475.80
2023-05-14T08:04:00.465Z,100473.48
2023-05-14T08:05:02.875Z,100479.13
2023-05-14T08:06:06.169Z,100475.36
2023-05-14T08:07:11.094Z,100477.43
2023-05-14T08:08:15.645Z,100475.31
2023-05-14T08:09:17.904Z,100476.77
2023-05-14T08:10:20.481Z,100481.80
2023-05-14T08:11:23.165Z,100475.06
2023-05-14T08:12:25.915Z,100474.63
2023-05-14T08:13:27.952Z,100478.82
2023-05-14T08:14:35.660Z,100472.08
2023-05-14T08:15:39.458Z,100472.72
2023-05-14T08:16:42.494Z,100470.60
2023-05-14T08:19:08.388Z,100480.41
2023-05-14T08:20:12.983Z,100472.67
2023-05-14T08:21:16.275Z,100476.86
2023-05-14T08:22:23.472Z,100472.84
2023-05-14T08:23:28.626Z,100472.64
2023-05-14T08:24:30.834Z,100475.99
2023-05-14T08:25:33.477Z,100469.68
2023-05-14T08:27:50.802Z,100462.50
2023-05-14T08:28:54.605Z,100468.00
2023-05-14T08:29:57.294Z,100463.14
2023-05-14T08:30:59.647Z,100463.98
2023-05-14T08:32:15.595Z,100463.14
2023-05-14T08:33:13.223Z,100460.41
2023-05-14T08:34:16.910Z,100458.14
2023-05-14T08:36:34.899Z,100452.67
2023-05-14T08:37:36.839Z,100456.93
2023-05-14T08:38:38.950Z,100458.20
2023-05-14T08:39:40.877Z,100453.38
2023-05-14T08:42:00.425Z,100441.88
2023-05-14T08:43:02.527Z,100446.79
2023-05-14T08:44:16.695Z,100444.92
2023-05-14T08:45:29.815Z,100450.01
2023-05-14T08:46:38.011Z,100449.59
2023-05-14T08:47:47.605Z,100456.75
2023-05-14T08:50:11.179Z,100441.44
2023-05-14T08:52:23.837Z,100443.98
2023-05-14T08:53:26.160Z,100440.66
2023-05-14T08:54:31.005Z,100446.50
2023-05-14T08:56:44.907Z,100444.85
2023-05-14T08:57:46.809Z,100440.61
2023-05-14T08:58:51.315Z,100444.61
2023-05-14T08:59:53.504Z,100439.80
2023-05-14T09:00:56.910Z,100445.05
2023-05-14T09:02:01.515Z,100445.69
2023-05-14T09:03:05.105Z,100444.64
2023-05-14T09:04:10.736Z,100453.23
2023-05-14T09:05:14.579Z,100441.89
2023-05-14T09:06:18.465Z,100444.41
2023-05-14T09:07:20.893Z,100435.80
2023-05-14T09:08:23.537Z,100441.48
2023-05-14T09:09:25.616Z,100435.59
2023-05-14T09:14:34.466Z,100425.95
2023-05-14T09:15:38.996Z,100429.25
2023-05-14T09:16:49.862Z,100430.95
2023-05-14T09:17:56.931Z,100423.39
2023-05-14T09:20:23.335Z,100427.63
2023-05-14T09:21:26.721Z,100432.03
2023-05-14T09:22:30.089Z,100423.01
2023-05-14T09:23:32.478Z,100434.11
2023-05-14T09:24:34.961Z,100425.08
2023-05-14T09:26:53.243Z,100428.05
2023-05-14T09:27:58.895Z,100427.98
2023-05-14T09:30:14.633Z,100419.82
2023-05-14T09:31:16.580Z,100420.00
2023-05-14T09:32:18.681Z,100416.65
2023-05-14T09:35:00.404Z,100414.36
2023-05-14T09:37:23.698Z,100415.17
2023-05-14T09:38:35.231Z,100416.19
2023-05-14T09:39:38.476Z,100419.33
2023-05-14T09:40:56.905Z,100415.97
2023-05-14T09:42:05.630Z,100418.92
2023-05-14T09:43:13.447Z,100418.08
2023-05-14T09:44:20.795Z,100413.66
2023-05-14T09:45:30.555Z,100417.41
2023-05-14T09:46:41.161Z,100423.08
2023-05-14T09:47:44.496Z,100409.87
2023-05-14T09:48:50.382Z,100412.59
2023-05-14T09:51:12.968Z,100405.70
2023-05-14T09:52:18.335Z,100407.55
2023-05-14T09:53:25.221Z,100411.52
2023-05-14T09:54:29.246Z,100417.78
2023-05-14T09:55:39.867Z,100406.08
2023-05-14T09:56:56.114Z,100410.68
2023-05-14T09:58:03.032Z,100409.84
2023-05-14T09:59:06.935Z,100410.87
2023-05-14T10:00:13.375Z,100406.48
2023-05-14T10:01:18.145Z,100411.08
2023-05-14T10:03:43.685Z,100405.64
2023-05-14T10:04:48.436Z,100407.45
2023-05-14T10:05:52.206Z,100408.52
2023-05-14T10:06:56.080Z,100406.82
2023-05-14T10:08:10.463Z,100408.70
2023-05-14T10:09:17.190Z,100403.47
2023-05-14T10:10:27.388Z,100408.06
2023-05-14T10:11:37.029Z,100405.75
2023-05-14T10:12:41.987Z,100402.39
2023-05-14T10:14:02.165Z,100409.94
2023-05-14T10:15:08.661Z,100402.61
2023-05-14T10:17:52.807Z,100398.65
2023-05-14T10:19:00.331Z,100408.47
2023-05-14T10:21:17.243Z,100396.98
2023-05-14T10:22:25.924Z,100395.03
2023-05-14T10:23:33.241Z,100396.09
2023-05-14T10:25:45.839Z,100391.10
2023-05-14T10:26:54.714Z,100396.28
2023-05-14T10:28:00.702Z,100398.82
2023-05-14T10:29:05.089Z,100395.03
2023-05-14T10:30:15.853Z,100397.36
2023-05-14T10:31:22.550Z,100391.51
2023-05-14T10:32:28.744Z,100394.67
2023-05-14T10:33:36.338Z,100401.59
2023-05-14T10:34:44.467Z,100400.13
2023-05-14T10:36:00.958Z,100396.37
2023-05-14T10:37:10.496Z,100398.88
2023-05-14T10:39:51.394Z,100383.84
2023-05-14T10:43:29.571Z,100386.73
2023-05-14T10:44:35.754Z,100391.88
2023-05-14T10:45:37.848Z,100387.67
2023-05-14T10:46:40.138Z,100386.20
2023-05-14T10:47:46.126Z,100386.02
2023-05-14T10:48:49.837Z,100389.36
2023-05-14T10:51:14.113Z,100377.67
2023-05-14T10:52:20.258Z,100389.99
2023-05-14T10:53:37.446Z,100381.64
2023-05-14T10:55:54.152Z,100381.47
2023-05-14T10:56:59.999Z,100391.72
2023-05-14T10:58:06.435Z,100382.49
2023-05-14T10:59:13.957Z,100385.84
2023-05-14T11:01:27.778Z,100379.25
2023-05-14T11:03:46.184Z,100382.59
2023-05-14T11:05:08.055Z,100375.61
2023-05-14T11:06:16.110Z,100385.47
2023-05-14T11:07:23.840Z,100377.74
2023-05-14T11:08:28.060Z,100375.68
2023-05-14T11:09:33.946Z,100378.19
2023-05-14T11:10:37.169Z,100371.48
2023-05-14T11:11:45.689Z,100374.20
2023-05-14T11:12:50.771Z,100358.71
2023-05-14T11:13:57.479Z,100371.08
2023-05-14T11:16:24.944Z,100364.42
2023-05-14T11:17:28.212Z,100359.36
2023-05-14T11:19:51.403Z,100354.77
2023-05-14T11:20:55.484Z,100350.78
2023-05-14T11:24:51.265Z,100352.90
2023-05-14T11:25:58.065Z,100355.38
2023-05-14T11:27:02.898Z,100362.52
2023-05-14T11:28:13.955Z,100363.37
2023-05-14T11:30:26.639Z,100366.11
2023-05-14T11:31:29.710Z,100366.72
2023-05-14T11:32:32.734Z,100363.37
2023-05-14T11:33:42.466Z,100364.41
2023-05-14T11:35:56.897Z,100365.05
2023-05-14T11:37:03.082Z,100370.48
2023-05-14T11:38:06.809Z,100375.08
2023-05-14T11:39:19.800Z,100371.73
2023-05-14T11:40:28.499Z,100367.51
2023-05-14T11:41:33.893Z,100369.60
2023-05-14T11:42:36.815Z,100368.98
2023-05-14T11:43:40.319Z,100369.39
2023-05-14T11:46:05.428Z,100358.52
2023-05-14T11:47:09.651Z,100364.72
2023-05-14T11:48:14.021Z,100369.54
2023-05-14T11:49:26.846Z,100359.90
2023-05-14T11:50:36.310Z,100357.58
2023-05-14T11:51:42.025Z,100364.28
2023-05-14T11:54:16.799Z,100365.53
2023-05-14T11:55:20.782Z,100362.98
2023-05-14T11:56:23.278Z,100363.39
2023-05-14T11:57:25.798Z,100358.16
2023-05-14T11:58:37.534Z,100368.20
2023-05-14T11:59:41.859Z,100364.02
2023-05-14T12:00:54.986Z,100362.31
2023-05-14T12:03:12.590Z,100362.36
2023-05-14T12:04:22.767Z,100366.91
2023-05-14T12:05:30.841Z,100364.38
2023-05-14T12:06:34.739Z,100373.56
2023-05-14T12:07:36.947Z,100369.19
2023-05-14T12:08:41.107Z,100366.46
2023-05-14T12:09:45.597Z,100366.65
2023-05-14T12:10:59.092Z,100367.70
2023-05-14T12:13:24.080Z,100364.19
2023-05-14T12:14:25.951Z,100366.81
2023-05-14T12:16:40.518Z,100363.92
2023-05-14T12:17:42.876Z,100361.36
2023-05-14T12:18:59.075Z,100354.23
2023-05-14T12:20:03.578Z,100356.50
2023-05-14T12:21:07.135Z,100358.38
2023-05-14T12:24:34.777Z,100352.75
2023-05-14T12:26:53.012Z,100353.88
2023-05-14T12:27:58.931Z,100352.88
2023-05-14T12:30:35.618Z,100339.22
2023-05-14T12:31:38.594Z,100350.59
2023-05-14T12:32:41.414Z,100347.00
2023-05-14T12:33:43.995Z,100351.14
2023-05-14T12:34:46.080Z,100345.67
2023-05-14T12:35:50.739Z,100340.80
2023-05-14T12:36:53.615Z,100344.12
2023-05-14T12:37:56.073Z,100341.98
2023-05-14T12:38:59.678Z,100345.09
2023-05-14T12:41:16.344Z,100336.09
2023-05-14T12:42:18.224Z,100340.78
2023-05-14T12:43:21.548Z,100350.13
2023-05-14T12:44:28.620Z,100340.50
2023-05-14T12:45:34.452Z,100340.50
2023-05-14T12:46:38.005Z,100339.69
2023-05-14T12:47:42.639Z,100338.63
2023-05-14T12:48:46.421Z,100337.39
2023-05-14T12:49:49.893Z,100333.66
2023-05-14T12:50:52.226Z,100338.24
2023-05-14T12:52:07.949Z,100338.87
2023-05-14T12:53:04.615Z,100339.73
2023-05-14T12:54:06.867Z,100327.83
2023-05-14T12:55:09.883Z,100330.55
2023-05-14T12:56:18.426Z,100331.19
2023-05-14T12:57:23.011Z,100329.31
2023-05-14T12:58:25.851Z,100325.36
2023-05-14T12:59:28.153Z,100323.49
2023-05-14T13:00:31.306Z,100326.00
2023-05-14T13:01:37.129Z,100323.10
2023-05-14T13:02:42.067Z,100325.61
2023-05-14T13:03:47.366Z,100316.43
2023-05-14T13:04:49.395Z,100319.78
2023-05-14T13:05:52.765Z,100318.76
2023-05-14T13:06:55.712Z,100322.29
2023-05-14T13:07:59.064Z,100316.04
2023-05-14T13:09:01.728Z,100317.70
2023-05-14T13:10:05.915Z,100316.67
2023-05-14T13:11:08.484Z,100316.47
2023-05-14T13:12:12.594Z,100313.75
2023-05-14T13:13:18.222Z,100316.47
2023-05-14T13:14:23.973Z,100311.23
2023-05-14T13:15:26.236Z,100307.67
2023-05-14T13:16:30.160Z,100310.39
2023-05-14T13:17:33.386Z,100307.50
2023-05-14T13:18:35.605Z,100308.31
2023-05-14T13:19:38.587Z,100310.22
2023-05-14T13:20:43.206Z,100305.80
2023-05-14T13:21:47.564Z,100305.80
2023-05-14T13:22:51.876Z,100305.80
2023-05-14T13:23:54.116Z,100311.23
2023-05-14T13:24:56.186Z,100310.22
2023-05-14T13:26:10.865Z,100314.63
2023-05-14T13:27:12.975Z,100306.30
2023-05-14T13:28:15.522Z,100314.80
2023-05-14T13:29:17.890Z,100312.94
2023-05-14T13:31:45.476Z,100310.27
2023-05-14T13:32:51.346Z,100309.30
2023-05-14T13:33:56.782Z,100309.52
2023-05-14T13:35:02.447Z,100315.13
2023-05-14T13:36:05.490Z,100313.65
2023-05-14T13:37:07.595Z,100311.98
2023-05-14T13:38:09.835Z,100309.66
2023-05-14T13:39:12.691Z,100318.84
2023-05-14T13:40:16.577Z,100312.77
2023-05-14T13:41:19.099Z,100310.44
2023-05-14T13:42:23.296Z,100314.39
2023-05-14T13:43:36.527Z,100314.57
2023-05-14T13:44:39.032Z,100312.91
2023-05-14T13:45:42.226Z,100325.26
2023-05-14T13:46:44.684Z,100319.61
2023-05-14T13:47:47.709Z,100311.28
2023-05-14T13:48:51.138Z,100317.53